Time,TemperatureF,DewpointF,PressureIn,WindDirection,WindDirectionDegrees,WindSpeedMPH,WindSpeedGustMPH,Humidity,HourlyPrecipIn,Conditions,Clouds,dailyrainin,SoftwareType,DateUTC
2013-04-04 00:00:00,31.8,25.4,25.75,North,0,0.0,0.0,77,0.00,,---,0.00,VWS V13.01,2013-04-04 06:00:00,
2013-04-04 00:05:00,31.8,25.8,25.75,North,0,0.0,0.0,78,0.00,,---,0.00,VWS V13.01,2013-04-04 06:05:00,
2013-04-04 00:10:00,31.8,25.8,25.75,North,0,0.0,0.0,78,0.00,,---,0.00,VWS V13.01,2013-04-04 06:10:00,
2013-04-04 00:15:00,32.0,26.2,25.75,North,0,0.0,0.0,79,0.00,,---,0.00,VWS V13.01,2013-04-04 06:15:00,
2013-04-04 00:20:00,32.2,26.4,25.75,North,0,0.0,0.0,79,0.00,,---,0.00,VWS V13.01,2013-04-04 06:20:00,
2013-04-04 00:25:00,32.2,26.7,25.75,North,0,0.0,0.0,80,0.00,,---,0.00,VWS V13.01,2013-04-04 06:25:00,
2013-04-04 00:30:00,32.2,26.4,25.75,North,0,0.0,0.0,79,0.00,,---,0.00,VWS V13.01,2013-04-04 06:30:00,
2013-04-04 00:35:00,31.6,25.9,25.75,North,0,0.0,0.0,79,0.00,,---,0.00,VWS V13.01,2013-04-04 06:35:00,
2013-04-04 00:40:00,31.3,25.5,25.75,North,0,0.0,0.0,79,0.00,,---,0.00,VWS V13.01,2013-04-04 06:40:00,
2013-04-04 00:45:00,30.9,25.2,25.75,North,0,0.0,0.0,79,0.00,,---,0.00,VWS V13.01,2013-04-04 06:45:00,
2013-04-04 00:50:00,30.4,24.7,25.75,North,0,0.0,0.0,79,0.00,,---,0.00,VWS V13.01,2013-04-04 06:50:00,
2013-04-04 00:55:00,30.2,24.8,25.75,North,0,0.0,0.0,80,0.00,,---,0.00,VWS V13.01,2013-04-04 06:55:00,
2013-04-04 01:00:00,30.0,24.9,25.75,North,0,0.0,0.0,81,0.00,,---,0.00,VWS V13.01,2013-04-04 07:00:00,
2013-04-04 01:05:00,29.5,24.4,25.75,North,0,0.0,0.0,81,0.00,,---,0.00,VWS V13.01,2013-04-04 07:05:00,
2013-04-04 01:10:00,29.1,24.0,25.75,North,0,0.0,0.0,81,0.00,,---,0.00,VWS V13.01,2013-04-04 07:10:00,
2013-04-04 01:15:00,28.6,23.5,25.75,North,0,0.0,0.0,81,0.00,,---,0.00,VWS V13.01,2013-04-04 07:15:00,
2013-04-04 01:20:00,28.9,24.1,25.75,North,0,0.0,0.0,82,0.00,,---,0.00,VWS V13.01,2013-04-04 07:20:00,
2013-04-04 01:26:00,29.1,24.6,25.75,North,0,0.0,0.0,83,0.00,,---,0.00,VWS V13.01,2013-04-04 07:26:00,
2013-04-04 01:31:00,29.7,25.7,25.75,North,0,0.0,0.0,85,0.00,,---,0.00,VWS V13.01,2013-04-04 07:31:00,
2013-04-04 01:36:00,30.2,26.5,25.75,North,0,0.0,0.0,86,0.00,,---,0.00,VWS V13.01,2013-04-04 07:36:00,
2013-04-04 01:41:00,30.7,27.3,25.75,North,0,0.0,0.0,87,0.00,,---,0.00,VWS V13.01,2013-04-04 07:41:00,
2013-04-04 01:46:00,30.9,27.5,25.75,North,0,0.0,0.0,87,0.00,,---,0.00,VWS V13.01,2013-04-04 07:46:00,
2013-04-04 01:51:00,31.1,27.7,25.75,North,0,0.0,0.0,87,0.00,,---,0.00,VWS V13.01,2013-04-04 07:51:00,
2013-04-04 01:56:00,31.3,27.6,25.75,North,0,0.0,0.0,86,0.00,,---,0.00,VWS V13.01,2013-04-04 07:56:00,
2013-04-04 02:01:00,31.5,27.8,25.75,North,0,0.0,0.0,86,0.00,,---,0.00,VWS V13.01,2013-04-04 08:01:00,
2013-04-04 02:07:00,31.5,27.2,25.75,North,0,0.0,0.0,84,0.00,,---,0.00,VWS V13.01,2013-04-04 08:07:00,
2013-04-04 02:12:00,31.5,26.9,25.75,North,0,0.0,0.0,83,0.00,,---,0.00,VWS V13.01,2013-04-04 08:12:00,
2013-04-04 02:17:00,31.5,26.6,25.75,North,0,0.0,0.0,82,0.00,,---,0.00,VWS V13.01,2013-04-04 08:17:00,
2013-04-04 02:22:00,31.5,26.6,25.75,North,0,0.0,0.0,82,0.00,,---,0.00,VWS V13.01,2013-04-04 08:22:00,
2013-04-04 02:27:00,31.3,26.1,25.75,North,0,0.0,0.0,81,0.00,,---,0.00,VWS V13.01,2013-04-04 08:27:00,
2013-04-04 02:32:00,31.5,26.0,25.75,North,0,0.0,0.0,80,0.00,,---,0.00,VWS V13.01,2013-04-04 08:32:00,
2013-04-04 02:37:00,31.6,26.2,25.75,North,0,0.0,0.0,80,0.00,,---,0.00,VWS V13.01,2013-04-04 08:37:00,
2013-04-04 02:42:00,31.6,25.9,25.75,North,0,0.0,0.0,79,0.00,,---,0.00,VWS V13.01,2013-04-04 08:42:00,
2013-04-04 02:47:00,31.6,25.9,25.75,North,0,0.0,0.0,79,0.00,,---,0.00,VWS V13.01,2013-04-04 08:47:00,
2013-04-04 02:52:00,31.6,25.9,25.75,North,0,0.0,0.0,79,0.00,,---,0.00,VWS V13.01,2013-04-04 08:52:00,
2013-04-04 02:57:00,31.6,25.6,25.75,North,0,0.0,0.0,78,0.00,,---,0.00,VWS V13.01,2013-04-04 08:57:00,
2013-04-04 03:02:00,31.6,25.6,25.75,North,0,0.0,0.0,78,0.00,,---,0.00,VWS V13.01,2013-04-04 09:02:00,
2013-04-04 03:07:00,31.3,24.9,25.75,North,0,0.0,0.0,77,0.00,,---,0.00,VWS V13.01,2013-04-04 09:07:00,
2013-04-04 03:12:00,31.1,24.8,25.75,North,0,0.0,0.0,77,0.00,,---,0.00,VWS V13.01,2013-04-04 09:12:00,
2013-04-04 03:17:00,31.1,24.8,25.75,North,0,0.0,0.0,77,0.00,,---,0.00,VWS V13.01,2013-04-04 09:17:00,
2013-04-04 03:22:00,30.9,24.6,25.75,North,0,0.0,0.0,77,0.00,,---,0.00,VWS V13.01,2013-04-04 09:22:00,
2013-04-04 03:27:00,30.6,24.2,25.75,North,0,0.0,0.0,77,0.00,,---,0.00,VWS V13.01,2013-04-04 09:27:00,
2013-04-04 03:32:00,30.6,24.2,25.75,North,0,0.0,0.0,77,0.00,,---,0.00,VWS V13.01,2013-04-04 09:32:00,
2013-04-04 03:37:00,30.0,23.7,25.75,North,0,0.0,0.0,77,0.00,,---,0.00,VWS V13.01,2013-04-04 09:37:00,
2013-04-04 03:42:00,30.0,24.0,25.75,North,0,0.0,0.0,78,0.00,,---,0.00,VWS V13.01,2013-04-04 09:42:00,
2013-04-04 03:47:00,30.4,24.4,25.75,North,0,0.0,0.0,78,0.00,,---,0.00,VWS V13.01,2013-04-04 09:47:00,
2013-04-04 03:52:00,30.9,25.2,25.75,North,0,0.0,0.0,79,0.00,,---,0.00,VWS V13.01,2013-04-04 09:52:00,
2013-04-04 03:57:00,31.5,25.7,25.75,North,0,0.0,0.0,79,0.00,,---,0.00,VWS V13.01,2013-04-04 09:57:00,
2013-04-04 04:02:00,31.6,25.9,25.72,North,0,0.0,0.0,79,0.00,,---,0.00,VWS V13.01,2013-04-04 10:02:00,
2013-04-04 04:08:00,30.9,24.6,25.72,North,0,0.0,0.0,77,0.00,,---,0.00,VWS V13.01,2013-04-04 10:08:00,
2013-04-04 04:13:00,30.2,24.2,25.72,North,0,0.0,0.0,78,0.00,,---,0.00,VWS V13.01,2013-04-04 10:13:00,
2013-04-04 04:18:00,29.5,23.2,25.72,North,0,0.0,0.0,77,0.00,,---,0.00,VWS V13.01,2013-04-04 10:18:00,
2013-04-04 04:23:00,29.3,23.9,25.72,North,0,0.0,0.0,80,0.00,,---,0.00,VWS V13.01,2013-04-04 10:23:00,
2013-04-04 04:28:00,29.1,23.7,25.72,North,0,0.0,0.0,80,0.00,,---,0.00,VWS V13.01,2013-04-04 10:28:00,
2013-04-04 04:33:00,29.1,23.7,25.75,North,0,0.0,0.0,80,0.00,,---,0.00,VWS V13.01,2013-04-04 10:33:00,
2013-04-04 04:38:00,29.1,23.7,25.75,North,0,0.0,0.0,80,0.00,,---,0.00,VWS V13.01,2013-04-04 10:38:00,
2013-04-04 04:43:00,29.5,24.7,25.75,North,0,0.0,0.0,82,0.00,,---,0.00,VWS V13.01,2013-04-04 10:43:00,
2013-04-04 04:48:00,29.1,24.3,25.72,North,0,0.0,0.0,82,0.00,,---,0.00,VWS V13.01,2013-04-04 10:48:00,
2013-04-04 04:53:00,28.4,23.3,25.72,North,0,0.0,0.0,81,0.00,,---,0.00,VWS V13.01,2013-04-04 10:53:00,
2013-04-04 04:58:00,28.6,23.5,25.72,North,0,0.0,0.0,81,0.00,,---,0.00,VWS V13.01,2013-04-04 10:58:00,
2013-04-04 05:03:00,28.2,23.4,25.72,North,0,0.0,0.0,82,0.00,,---,0.00,VWS V13.01,2013-04-04 11:03:00,
2013-04-04 05:08:00,27.9,23.1,25.72,North,0,0.0,0.0,82,0.00,,---,0.00,VWS V13.01,2013-04-04 11:08:00,
2013-04-04 05:13:00,27.7,23.2,25.72,North,0,0.0,0.0,83,0.00,,---,0.00,VWS V13.01,2013-04-04 11:13:00,
2013-04-04 05:18:00,27.7,23.5,25.72,North,0,0.0,0.0,84,0.00,,---,0.00,VWS V13.01,2013-04-04 11:18:00,
2013-04-04 05:23:00,27.3,23.1,25.72,North,0,0.0,0.0,84,0.00,,---,0.00,VWS V13.01,2013-04-04 11:23:00,
2013-04-04 05:28:00,27.5,23.3,25.72,North,0,0.0,0.0,84,0.00,,---,0.00,VWS V13.01,2013-04-04 11:28:00,
2013-04-04 05:33:00,27.0,23.1,25.72,North,0,0.0,0.0,85,0.00,,---,0.00,VWS V13.01,2013-04-04 11:33:00,
2013-04-04 05:38:00,27.0,23.1,25.72,North,0,0.0,0.0,85,0.00,,---,0.00,VWS V13.01,2013-04-04 11:38:00,
2013-04-04 05:43:00,27.0,23.3,25.72,North,0,0.0,0.0,86,0.00,,---,0.00,VWS V13.01,2013-04-04 11:43:00,
2013-04-04 05:48:00,26.4,22.8,25.72,North,0,0.0,0.0,86,0.00,,---,0.00,VWS V13.01,2013-04-04 11:48:00,
2013-04-04 05:53:00,26.6,23.3,25.72,North,0,0.0,0.0,87,0.00,,---,0.00,VWS V13.01,2013-04-04 11:53:00,
2013-04-04 05:58:00,27.0,23.6,25.72,North,0,0.0,0.0,87,0.00,,---,0.00,VWS V13.01,2013-04-04 11:58:00,
2013-04-04 06:03:00,27.1,24.1,25.72,North,0,0.0,0.0,88,0.00,,---,0.00,VWS V13.01,2013-04-04 12:03:00,
2013-04-04 06:09:00,26.8,23.7,25.72,North,0,0.0,0.0,88,0.00,,---,0.00,VWS V13.01,2013-04-04 12:09:00,
2013-04-04 06:14:00,26.8,24.0,25.72,North,0,0.0,0.0,89,0.00,,---,0.00,VWS V13.01,2013-04-04 12:14:00,
2013-04-04 06:19:00,27.5,25.0,25.72,North,0,0.0,0.0,90,0.00,,---,0.00,VWS V13.01,2013-04-04 12:19:00,
2013-04-04 06:24:00,28.0,25.5,25.72,North,0,0.0,0.0,90,0.00,,---,0.00,VWS V13.01,2013-04-04 12:24:00,
2013-04-04 06:29:00,28.8,26.5,25.72,North,0,0.0,0.0,91,0.00,,---,0.00,VWS V13.01,2013-04-04 12:29:00,
2013-04-04 06:35:00,29.1,26.8,25.72,North,0,0.0,0.0,91,0.00,,---,0.00,VWS V13.01,2013-04-04 12:35:00,
2013-04-04 06:40:00,29.7,27.4,25.72,North,0,0.0,0.0,91,0.00,,---,0.00,VWS V13.01,2013-04-04 12:40:00,
2013-04-04 06:45:00,29.8,27.5,25.72,North,0,0.0,0.0,91,0.00,,---,0.00,VWS V13.01,2013-04-04 12:45:00,
2013-04-04 06:50:00,29.8,27.3,25.72,North,0,0.0,0.0,90,0.00,,---,0.00,VWS V13.01,2013-04-04 12:50:00,
2013-04-04 06:55:00,30.0,27.5,25.72,North,0,0.0,0.0,90,0.00,,---,0.00,VWS V13.01,2013-04-04 12:55:00,
2013-04-04 07:00:00,30.2,27.6,25.72,North,0,0.0,0.0,90,0.00,,---,0.00,VWS V13.01,2013-04-04 13:00:00,
2013-04-04 07:05:00,30.6,27.7,25.75,North,0,0.0,0.0,89,0.00,,---,0.00,VWS V13.01,2013-04-04 13:05:00,
2013-04-04 07:10:00,30.7,27.6,25.75,North,0,0.0,0.0,88,0.00,,---,0.00,VWS V13.01,2013-04-04 13:10:00,
2013-04-04 07:15:00,30.9,27.8,25.75,North,0,0.0,0.0,88,0.00,,---,0.00,VWS V13.01,2013-04-04 13:15:00,
2013-04-04 07:20:00,31.5,28.0,25.75,North,0,0.0,0.0,87,0.00,,---,0.00,VWS V13.01,2013-04-04 13:20:00,
2013-04-04 07:25:00,31.8,28.1,25.75,North,0,0.0,0.0,86,0.00,,---,0.00,VWS V13.01,2013-04-04 13:25:00,
2013-04-04 07:30:00,32.2,28.2,25.75,North,0,0.0,0.0,85,0.00,,---,0.00,VWS V13.01,2013-04-04 13:30:00,
2013-04-04 07:35:00,32.2,27.9,25.75,North,0,0.0,0.0,84,0.00,,---,0.00,VWS V13.01,2013-04-04 13:35:00,
2013-04-04 07:40:00,32.4,27.8,25.75,North,0,0.0,0.0,83,0.00,,---,0.00,VWS V13.01,2013-04-04 13:40:00,
2013-04-04 07:45:00,32.5,27.7,25.75,North,0,0.0,0.0,82,0.00,,---,0.00,VWS V13.01,2013-04-04 13:45:00,
2013-04-04 07:50:00,32.5,27.4,25.75,North,0,0.0,0.0,81,0.00,,---,0.00,VWS V13.01,2013-04-04 13:50:00,
2013-04-04 07:55:00,32.5,27.1,25.75,North,0,0.0,0.0,80,0.00,,---,0.00,VWS V13.01,2013-04-04 13:55:00,
2013-04-04 08:00:00,32.5,26.8,25.75,North,0,0.0,0.0,79,0.00,,---,0.00,VWS V13.01,2013-04-04 14:00:00,
2013-04-04 08:05:00,33.3,27.1,25.75,North,0,0.0,0.0,78,0.00,,---,0.00,VWS V13.01,2013-04-04 14:05:00,
2013-04-04 08:10:00,33.8,27.0,25.75,North,0,0.0,0.0,76,0.00,,---,0.00,VWS V13.01,2013-04-04 14:10:00,
2013-04-04 08:15:00,34.7,27.6,25.75,North,0,0.0,0.0,75,0.00,,---,0.00,VWS V13.01,2013-04-04 14:15:00,
2013-04-04 08:20:00,36.3,29.2,25.75,North,0,0.0,0.0,75,0.00,,---,0.00,VWS V13.01,2013-04-04 14:20:00,
2013-04-04 08:25:00,37.0,26.0,25.75,North,0,0.0,0.0,64,0.00,,---,0.00,VWS V13.01,2013-04-04 14:25:00,
2013-04-04 08:30:00,36.7,23.7,25.75,North,0,0.0,0.0,59,0.00,,---,0.00,VWS V13.01,2013-04-04 14:30:00,
2013-04-04 08:35:00,36.3,22.6,25.75,North,0,0.0,0.0,57,0.00,,---,0.00,VWS V13.01,2013-04-04 14:35:00,
2013-04-04 08:40:00,36.9,23.1,25.75,North,0,0.0,0.0,57,0.00,,---,0.00,VWS V13.01,2013-04-04 14:40:00,
2013-04-04 08:45:00,38.1,23.0,25.75,North,0,0.0,0.0,54,0.00,,---,0.00,VWS V13.01,2013-04-04 14:45:00,
2013-04-04 08:50:00,40.1,22.5,25.75,North,0,0.0,0.0,49,0.00,,---,0.00,VWS V13.01,2013-04-04 14:50:00,
2013-04-04 08:55:00,40.5,21.3,25.75,North,0,0.0,0.0,46,0.00,,---,0.00,VWS V13.01,2013-04-04 14:55:00,
2013-04-04 09:00:00,40.3,21.2,25.75,North,0,0.0,0.0,46,0.00,,---,0.00,VWS V13.01,2013-04-04 15:00:00,
2013-04-04 09:05:00,42.1,21.2,25.72,North,0,0.0,0.0,43,0.00,,---,0.00,VWS V13.01,2013-04-04 15:05:00,
2013-04-04 09:10:00,41.7,19.8,25.72,North,0,0.0,0.0,41,0.00,,---,0.00,VWS V13.01,2013-04-04 15:10:00,
2013-04-04 09:15:00,40.6,19.4,25.72,North,0,0.0,0.0,42,0.00,,---,0.00,VWS V13.01,2013-04-04 15:15:00,
2013-04-04 09:20:00,40.3,18.5,25.72,North,0,0.0,0.0,41,0.00,,---,0.00,VWS V13.01,2013-04-04 15:20:00,
2013-04-04 09:25:00,41.4,19.5,25.72,North,0,0.0,0.0,41,0.00,,---,0.00,VWS V13.01,2013-04-04 15:25:00,
2013-04-04 09:30:00,41.7,18.6,25.72,North,0,0.0,0.0,39,0.00,,---,0.00,VWS V13.01,2013-04-04 15:30:00,
2013-04-04 09:35:00,42.1,19.5,25.72,North,0,0.0,0.0,40,0.00,,---,0.00,VWS V13.01,2013-04-04 15:35:00,
2013-04-04 09:40:00,45.3,21.2,25.72,North,0,0.0,0.0,38,0.00,,---,0.00,VWS V13.01,2013-04-04 15:40:00,
2013-04-04 09:45:00,45.7,20.3,25.72,North,0,0.0,0.0,36,0.00,,---,0.00,VWS V13.01,2013-04-04 15:45:00,
2013-04-04 09:50:00,48.7,20.9,25.72,North,0,0.0,0.0,33,0.00,,---,0.00,VWS V13.01,2013-04-04 15:50:00,
2013-04-04 09:55:00,49.3,19.9,25.72,North,0,0.0,0.0,31,0.00,,---,0.00,VWS V13.01,2013-04-04 15:55:00,
2013-04-04 10:00:00,50.0,19.8,25.72,North,0,0.0,0.0,30,0.00,,---,0.00,VWS V13.01,2013-04-04 16:00:00,
2013-04-04 10:05:00,47.7,18.5,25.72,North,0,0.0,0.0,31,0.00,,---,0.00,VWS V13.01,2013-04-04 16:05:00,
2013-04-04 10:10:00,44.8,17.5,25.72,North,0,0.0,0.0,33,0.00,,---,0.00,VWS V13.01,2013-04-04 16:10:00,
2013-04-04 10:15:00,48.4,20.6,25.72,North,0,0.0,0.0,33,0.00,,---,0.00,VWS V13.01,2013-04-04 16:15:00,
2013-04-04 10:20:00,51.8,21.4,25.72,North,0,0.0,0.0,30,0.00,,---,0.00,VWS V13.01,2013-04-04 16:20:00,
2013-04-04 10:25:00,53.8,22.3,25.72,North,0,0.0,0.0,29,0.00,,---,0.00,VWS V13.01,2013-04-04 16:25:00,
2013-04-04 10:30:00,53.8,21.5,25.72,North,0,0.0,0.0,28,0.00,,---,0.00,VWS V13.01,2013-04-04 16:30:00,
2013-04-04 10:36:00,54.9,22.4,25.72,North,0,0.0,0.0,28,0.00,,---,0.00,VWS V13.01,2013-04-04 16:36:00,
2013-04-04 10:41:00,55.2,21.8,25.72,North,0,0.0,0.0,27,0.00,,---,0.00,VWS V13.01,2013-04-04 16:41:00,
2013-04-04 10:46:00,55.9,22.5,25.72,North,0,0.0,0.0,27,0.00,,---,0.00,VWS V13.01,2013-04-04 16:46:00,
2013-04-04 10:51:00,55.6,22.1,25.72,North,0,0.0,0.0,27,0.00,,---,0.00,VWS V13.01,2013-04-04 16:51:00,
2013-04-04 10:56:00,55.2,21.8,25.72,North,0,0.0,0.0,27,0.00,,---,0.00,VWS V13.01,2013-04-04 16:56:00,
2013-04-04 11:02:00,52.3,19.4,25.72,North,0,0.0,0.0,27,0.00,,---,0.00,VWS V13.01,2013-04-04 17:02:00,
2013-04-04 11:07:00,52.2,20.1,25.72,North,0,0.0,0.0,28,0.00,,---,0.00,VWS V13.01,2013-04-04 17:07:00,
2013-04-04 11:12:00,54.5,21.2,25.72,North,0,0.0,0.0,27,0.00,,---,0.00,VWS V13.01,2013-04-04 17:12:00,
2013-04-04 11:17:00,55.9,21.6,25.72,North,0,0.0,0.0,26,0.00,,---,0.00,VWS V13.01,2013-04-04 17:17:00,
2013-04-04 11:22:00,56.8,22.3,25.72,North,0,0.0,0.0,26,0.00,,---,0.00,VWS V13.01,2013-04-04 17:22:00,
2013-04-04 11:27:00,57.9,23.3,25.72,North,0,0.0,0.0,26,0.00,,---,0.00,VWS V13.01,2013-04-04 17:27:00,
2013-04-04 11:32:00,56.8,22.3,25.72,North,0,0.0,0.0,26,0.00,,---,0.00,VWS V13.01,2013-04-04 17:32:00,
2013-04-04 11:38:00,57.4,22.8,25.72,North,0,0.0,0.0,26,0.00,,---,0.00,VWS V13.01,2013-04-04 17:38:00,
2013-04-04 11:43:00,58.3,23.6,25.72,North,0,0.0,0.0,26,0.00,,---,0.00,VWS V13.01,2013-04-04 17:43:00,
2013-04-04 11:48:00,55.9,21.6,25.72,North,0,0.0,0.0,26,0.00,,---,0.00,VWS V13.01,2013-04-04 17:48:00,
2013-04-04 11:53:00,57.0,22.5,25.72,North,0,0.0,0.0,26,0.00,,---,0.00,VWS V13.01,2013-04-04 17:53:00,
2013-04-04 11:58:00,58.1,23.4,25.72,North,0,0.0,0.0,26,0.00,,---,0.00,VWS V13.01,2013-04-04 17:58:00,
2013-04-04 12:03:00,58.3,23.6,25.72,North,0,0.0,0.0,26,0.00,,---,0.00,VWS V13.01,2013-04-04 18:03:00,
2013-04-04 12:08:00,58.3,22.6,25.72,North,0,0.0,0.0,25,0.00,,---,0.00,VWS V13.01,2013-04-04 18:08:00,
2013-04-04 12:13:00,58.1,23.4,25.72,North,0,0.0,0.0,26,0.00,,---,0.00,VWS V13.01,2013-04-04 18:13:00,
2013-04-04 12:18:00,57.2,21.7,25.72,North,0,0.0,0.0,25,0.00,,---,0.00,VWS V13.01,2013-04-04 18:18:00,
2013-04-04 12:23:00,57.7,23.1,25.72,North,0,0.0,0.0,26,0.00,,---,0.00,VWS V13.01,2013-04-04 18:23:00,
2013-04-04 12:28:00,58.8,23.1,25.72,North,0,0.0,0.0,25,0.00,,---,0.00,VWS V13.01,2013-04-04 18:28:00,
2013-04-04 12:32:00,57.6,22.0,25.72,North,0,0.0,0.0,25,0.00,,---,0.00,VWS V13.01,2013-04-04 18:32:00,
2013-04-04 12:37:00,57.2,22.6,25.72,North,0,0.0,0.0,26,0.00,,---,0.00,VWS V13.01,2013-04-04 18:37:00,
2013-04-04 12:42:00,57.6,22.0,25.72,North,0,0.0,0.0,25,0.00,,---,0.00,VWS V13.01,2013-04-04 18:42:00,
2013-04-04 12:48:00,59.0,23.2,25.69,North,0,0.0,0.0,25,0.00,,---,0.00,VWS V13.01,2013-04-04 18:48:00,
2013-04-04 12:53:00,58.3,22.6,25.69,North,0,0.0,0.0,25,0.00,,---,0.00,VWS V13.01,2013-04-04 18:53:00,
2013-04-04 12:58:00,57.4,21.9,25.69,North,0,0.0,0.0,25,0.00,,---,0.00,VWS V13.01,2013-04-04 18:58:00,
2013-04-04 13:03:00,57.7,23.1,25.69,North,0,0.0,0.0,26,0.00,,---,0.00,VWS V13.01,2013-04-04 19:03:00,
2013-04-04 13:08:00,56.3,21.9,25.69,North,0,0.0,0.0,26,0.00,,---,0.00,VWS V13.01,2013-04-04 19:08:00,
2013-04-04 13:13:00,56.5,22.0,25.69,North,0,0.0,0.0,26,0.00,,---,0.00,VWS V13.01,2013-04-04 19:13:00,
2013-04-04 13:18:00,56.3,21.9,25.69,North,0,0.0,0.0,26,0.00,,---,0.00,VWS V13.01,2013-04-04 19:18:00,
2013-04-04 13:23:00,56.7,22.2,25.69,North,0,0.0,0.0,26,0.00,,---,0.00,VWS V13.01,2013-04-04 19:23:00,
2013-04-04 13:28:00,56.7,22.2,25.69,North,0,0.0,0.0,26,0.00,,---,0.00,VWS V13.01,2013-04-04 19:28:00,
2013-04-04 13:33:00,56.3,21.9,25.69,North,0,0.0,0.0,26,0.00,,---,0.00,VWS V13.01,2013-04-04 19:33:00,
2013-04-04 13:38:00,56.1,21.7,25.69,North,0,0.0,0.0,26,0.00,,---,0.00,VWS V13.01,2013-04-04 19:38:00,
2013-04-04 13:43:00,55.0,20.8,25.69,North,0,0.0,0.0,26,0.00,,---,0.00,VWS V13.01,2013-04-04 19:43:00,
2013-04-04 13:48:00,55.2,21.0,25.69,North,0,0.0,0.0,26,0.00,,---,0.00,VWS V13.01,2013-04-04 19:48:00,
2013-04-04 13:53:00,55.6,21.3,25.69,North,0,0.0,0.0,26,0.00,,---,0.00,VWS V13.01,2013-04-04 19:53:00,
2013-04-04 13:58:00,55.6,21.3,25.69,North,0,0.0,0.0,26,0.00,,---,0.00,VWS V13.01,2013-04-04 19:58:00,
2013-04-04 14:03:00,54.1,20.9,25.69,North,0,0.0,0.0,27,0.00,,---,0.00,VWS V13.01,2013-04-04 20:03:00,
2013-04-04 14:08:00,54.3,21.1,25.69,North,0,0.0,0.0,27,0.00,,---,0.00,VWS V13.01,2013-04-04 20:08:00,
2013-04-04 14:13:00,54.7,21.4,25.69,North,0,0.0,0.0,27,0.00,,---,0.00,VWS V13.01,2013-04-04 20:13:00,
2013-04-04 14:18:00,54.9,21.5,25.69,North,0,0.0,0.0,27,0.00,,---,0.00,VWS V13.01,2013-04-04 20:18:00,
2013-04-04 14:23:00,54.0,20.8,25.69,North,0,0.0,0.0,27,0.00,,---,0.00,VWS V13.01,2013-04-04 20:23:00,
2013-04-04 14:28:00,54.0,20.8,25.69,North,0,0.0,0.0,27,0.00,,---,0.00,VWS V13.01,2013-04-04 20:28:00,
2013-04-04 14:33:00,54.0,20.8,25.69,North,0,0.0,0.0,27,0.00,,---,0.00,VWS V13.01,2013-04-04 20:33:00,
2013-04-04 14:38:00,54.3,21.1,25.69,North,0,0.0,0.0,27,0.00,,---,0.00,VWS V13.01,2013-04-04 20:38:00,
2013-04-04 14:43:00,54.1,20.9,25.69,North,0,0.0,0.0,27,0.00,,---,0.00,VWS V13.01,2013-04-04 20:43:00,
2013-04-04 14:48:00,53.6,20.5,25.66,North,0,0.0,0.0,27,0.00,,---,0.00,VWS V13.01,2013-04-04 20:48:00,
2013-04-04 14:53:00,53.4,20.3,25.66,North,0,0.0,0.0,27,0.00,,---,0.00,VWS V13.01,2013-04-04 20:53:00,
2013-04-04 14:58:00,53.1,20.0,25.66,North,0,0.0,0.0,27,0.00,,---,0.00,VWS V13.01,2013-04-04 20:58:00,
2013-04-04 15:03:00,52.7,19.7,25.66,North,0,0.0,0.0,27,0.00,,---,0.00,VWS V13.01,2013-04-04 21:03:00,
2013-04-04 15:08:00,52.7,19.7,25.66,North,0,0.0,0.0,27,0.00,,---,0.00,VWS V13.01,2013-04-04 21:08:00,
2013-04-04 15:13:00,52.5,20.4,25.66,North,0,0.0,0.0,28,0.00,,---,0.00,VWS V13.01,2013-04-04 21:13:00,
2013-04-04 15:18:00,52.3,19.4,25.66,North,0,0.0,0.0,27,0.00,,---,0.00,VWS V13.01,2013-04-04 21:18:00,
2013-04-04 15:23:00,52.0,19.9,25.66,North,0,0.0,0.0,28,0.00,,---,0.00,VWS V13.01,2013-04-04 21:23:00,
2013-04-04 15:28:00,52.0,19.9,25.66,North,0,0.0,0.0,28,0.00,,---,0.00,VWS V13.01,2013-04-04 21:28:00,
2013-04-04 15:33:00,51.8,19.8,25.66,North,0,0.0,0.0,28,0.00,,---,0.00,VWS V13.01,2013-04-04 21:33:00,
2013-04-04 15:38:00,51.8,19.8,25.66,North,0,0.0,0.0,28,0.00,,---,0.00,VWS V13.01,2013-04-04 21:38:00,
2013-04-04 15:43:00,51.8,19.8,25.66,North,0,0.0,0.0,28,0.00,,---,0.00,VWS V13.01,2013-04-04 21:43:00,
2013-04-04 15:48:00,51.8,19.8,25.66,North,0,0.0,0.0,28,0.00,,---,0.00,VWS V13.01,2013-04-04 21:48:00,
2013-04-04 15:53:00,51.3,19.3,25.66,North,0,0.0,0.0,28,0.00,,---,0.00,VWS V13.01,2013-04-04 21:53:00,
2013-04-04 15:58:00,50.9,19.0,25.66,North,0,0.0,0.0,28,0.00,,---,0.00,VWS V13.01,2013-04-04 21:58:00,
2013-04-04 16:03:00,50.9,19.8,25.66,North,0,0.0,0.0,29,0.00,,---,0.00,VWS V13.01,2013-04-04 22:03:00,
2013-04-04 16:08:00,51.1,20.0,25.66,North,0,0.0,0.0,29,0.00,,---,0.00,VWS V13.01,2013-04-04 22:08:00,
2013-04-04 16:13:00,50.9,19.8,25.66,North,0,0.0,0.0,29,0.00,,---,0.00,VWS V13.01,2013-04-04 22:13:00,
2013-04-04 16:18:00,50.9,19.8,25.66,North,0,0.0,0.0,29,0.00,,---,0.00,VWS V13.01,2013-04-04 22:18:00,
2013-04-04 16:23:00,50.5,19.5,25.66,North,0,0.0,0.0,29,0.00,,---,0.00,VWS V13.01,2013-04-04 22:23:00,
2013-04-04 16:28:00,50.5,19.5,25.66,North,0,0.0,0.0,29,0.00,,---,0.00,VWS V13.01,2013-04-04 22:28:00,
2013-04-04 16:33:00,50.7,19.6,25.66,North,0,0.0,0.0,29,0.00,,---,0.00,VWS V13.01,2013-04-04 22:33:00,
2013-04-04 16:38:00,50.7,19.6,25.66,North,0,0.0,0.0,29,0.00,,---,0.00,VWS V13.01,2013-04-04 22:38:00,
2013-04-04 16:43:00,50.5,19.5,25.66,North,0,0.0,0.0,29,0.00,,---,0.00,VWS V13.01,2013-04-04 22:43:00,
2013-04-04 16:48:00,50.9,20.6,25.66,North,0,0.0,0.0,30,0.00,,---,0.00,VWS V13.01,2013-04-04 22:48:00,
2013-04-04 16:53:00,50.7,19.6,25.66,North,0,0.0,0.0,29,0.00,,---,0.00,VWS V13.01,2013-04-04 22:53:00,
2013-04-04 16:58:00,50.4,19.3,25.66,North,0,0.0,0.0,29,0.00,,---,0.00,VWS V13.01,2013-04-04 22:58:00,
2013-04-04 17:03:00,50.7,20.4,25.66,North,0,0.0,0.0,30,0.00,,---,0.00,VWS V13.01,2013-04-04 23:03:00,
2013-04-04 17:09:00,50.9,19.8,25.66,North,0,0.0,0.0,29,0.00,,---,0.00,VWS V13.01,2013-04-04 23:09:00,
2013-04-04 17:14:00,50.5,19.5,25.66,North,0,0.0,0.0,29,0.00,,---,0.00,VWS V13.01,2013-04-04 23:14:00,
2013-04-04 17:19:00,49.8,19.6,25.66,North,0,0.0,0.0,30,0.00,,---,0.00,VWS V13.01,2013-04-04 23:19:00,
2013-04-04 17:24:00,49.5,19.3,25.66,North,0,0.0,0.0,30,0.00,,---,0.00,VWS V13.01,2013-04-04 23:24:00,
2013-04-04 17:29:00,49.3,19.2,25.66,North,0,0.0,0.0,30,0.00,,---,0.00,VWS V13.01,2013-04-04 23:29:00,
2013-04-04 17:34:00,49.1,19.0,25.66,North,0,0.0,0.0,30,0.00,,---,0.00,VWS V13.01,2013-04-04 23:34:00,
2013-04-04 17:39:00,48.7,18.7,25.66,North,0,0.0,0.0,30,0.00,,---,0.00,VWS V13.01,2013-04-04 23:39:00,
2013-04-04 17:44:00,48.2,19.0,25.66,North,0,0.0,0.0,31,0.00,,---,0.00,VWS V13.01,2013-04-04 23:44:00,
2013-04-04 17:49:00,48.0,18.8,25.66,North,0,0.0,0.0,31,0.00,,---,0.00,VWS V13.01,2013-04-04 23:49:00,
2013-04-04 17:54:00,47.8,18.7,25.66,North,0,0.0,0.0,31,0.00,,---,0.00,VWS V13.01,2013-04-04 23:54:00,
2013-04-04 17:59:00,47.5,18.4,25.66,North,0,0.0,0.0,31,0.00,,---,0.00,VWS V13.01,2013-04-04 23:59:00,
2013-04-04 18:04:00,47.3,18.2,25.66,North,0,0.0,0.0,31,0.00,,---,0.00,VWS V13.01,2013-04-05 00:04:00,
2013-04-04 18:09:00,46.8,18.5,25.66,North,0,0.0,0.0,32,0.00,,---,0.00,VWS V13.01,2013-04-05 00:09:00,
2013-04-04 18:14:00,46.6,18.3,25.66,North,0,0.0,0.0,32,0.00,,---,0.00,VWS V13.01,2013-04-05 00:14:00,
2013-04-04 18:19:00,46.6,18.3,25.66,North,0,0.0,0.0,32,0.00,,---,0.00,VWS V13.01,2013-04-05 00:19:00,
2013-04-04 18:24:00,46.6,18.3,25.66,North,0,0.0,0.0,32,0.00,,---,0.00,VWS V13.01,2013-04-05 00:24:00,
2013-04-04 18:30:00,46.2,18.0,25.66,North,0,0.0,0.0,32,0.00,,---,0.00,VWS V13.01,2013-04-05 00:30:00,
2013-04-04 18:35:00,46.0,17.9,25.66,North,0,0.0,0.0,32,0.00,,---,0.00,VWS V13.01,2013-04-05 00:35:00,
2013-04-04 18:40:00,45.9,17.7,25.66,North,0,0.0,0.0,32,0.00,,---,0.00,VWS V13.01,2013-04-05 00:40:00,
2013-04-04 18:45:00,45.5,17.4,25.66,North,0,0.0,0.0,32,0.00,,---,0.00,VWS V13.01,2013-04-05 00:45:00,
2013-04-04 18:50:00,45.3,17.2,25.66,North,0,0.0,0.0,32,0.00,,---,0.00,VWS V13.01,2013-04-05 00:50:00,
2013-04-04 18:55:00,44.8,16.7,25.66,North,0,0.0,0.0,32,0.00,,---,0.00,VWS V13.01,2013-04-05 00:55:00,
2013-04-04 19:00:00,44.4,17.1,25.66,North,0,0.0,0.0,33,0.00,,---,0.00,VWS V13.01,2013-04-05 01:00:00,
2013-04-04 19:05:00,44.1,16.8,25.66,North,0,0.0,0.0,33,0.00,,---,0.00,VWS V13.01,2013-04-05 01:05:00,
2013-04-04 19:10:00,43.7,16.5,25.66,North,0,0.0,0.0,33,0.00,,---,0.00,VWS V13.01,2013-04-05 01:10:00,
2013-04-04 19:15:00,43.7,16.5,25.66,North,0,0.0,0.0,33,0.00,,---,0.00,VWS V13.01,2013-04-05 01:15:00,
2013-04-04 19:20:00,43.5,16.3,25.66,North,0,0.0,0.0,33,0.00,,---,0.00,VWS V13.01,2013-04-05 01:20:00,
2013-04-04 19:25:00,43.2,16.0,25.66,North,0,0.0,0.0,33,0.00,,---,0.00,VWS V13.01,2013-04-05 01:25:00,
2013-04-04 19:30:00,43.0,15.9,25.66,North,0,0.0,0.0,33,0.00,,---,0.00,VWS V13.01,2013-04-05 01:30:00,
2013-04-04 19:35:00,42.8,15.7,25.63,North,0,0.0,0.0,33,0.00,,---,0.00,VWS V13.01,2013-04-05 01:35:00,
2013-04-04 19:40:00,42.8,15.7,25.63,North,0,0.0,0.0,33,0.00,,---,0.00,VWS V13.01,2013-04-05 01:40:00,
2013-04-04 19:45:00,42.6,15.6,25.63,North,0,0.0,0.0,33,0.00,,---,0.00,VWS V13.01,2013-04-05 01:45:00,
2013-04-04 19:50:00,42.4,15.4,25.66,North,0,0.0,0.0,33,0.00,,---,0.00,VWS V13.01,2013-04-05 01:50:00,
2013-04-04 19:55:00,42.3,15.2,25.66,North,0,0.0,0.0,33,0.00,,---,0.00,VWS V13.01,2013-04-05 01:55:00,
2013-04-04 20:00:00,42.1,15.1,25.66,North,0,0.0,0.0,33,0.00,,---,0.00,VWS V13.01,2013-04-05 02:00:00,
2013-04-04 20:05:00,42.1,15.1,25.66,North,0,0.0,0.0,33,0.00,,---,0.00,VWS V13.01,2013-04-05 02:05:00,
2013-04-04 20:10:00,41.7,14.8,25.66,North,0,0.0,0.0,33,0.00,,---,0.00,VWS V13.01,2013-04-05 02:10:00,
2013-04-04 20:15:00,41.9,14.9,25.66,North,0,0.0,0.0,33,0.00,,---,0.00,VWS V13.01,2013-04-05 02:15:00,
2013-04-04 20:20:00,41.9,14.9,25.66,North,0,0.0,0.0,33,0.00,,---,0.00,VWS V13.01,2013-04-05 02:20:00,
2013-04-04 20:25:00,41.7,14.8,25.66,North,0,0.0,0.0,33,0.00,,---,0.00,VWS V13.01,2013-04-05 02:25:00,
2013-04-04 20:30:00,41.5,14.6,25.66,North,0,0.0,0.0,33,0.00,,---,0.00,VWS V13.01,2013-04-05 02:30:00,
2013-04-04 20:35:00,41.2,14.3,25.66,North,0,0.0,0.0,33,0.00,,---,0.00,VWS V13.01,2013-04-05 02:35:00,
2013-04-04 20:40:00,40.8,14.0,25.66,North,0,0.0,0.0,33,0.00,,---,0.00,VWS V13.01,2013-04-05 02:40:00,
2013-04-04 20:45:00,40.8,14.0,25.66,North,0,0.0,0.0,33,0.00,,---,0.00,VWS V13.01,2013-04-05 02:45:00,
2013-04-04 20:50:00,40.5,13.6,25.66,North,0,0.0,0.0,33,0.00,,---,0.00,VWS V13.01,2013-04-05 02:50:00,
2013-04-04 20:55:00,40.1,14.0,25.66,North,0,0.0,0.0,34,0.00,,---,0.00,VWS V13.01,2013-04-05 02:55:00,
2013-04-04 21:00:00,39.7,13.7,25.66,North,0,0.0,0.0,34,0.00,,---,0.00,VWS V13.01,2013-04-05 03:00:00,
2013-04-04 21:05:00,39.7,13.7,25.66,North,0,0.0,0.0,34,0.00,,---,0.00,VWS V13.01,2013-04-05 03:05:00,
2013-04-04 21:11:00,39.9,13.8,25.66,North,0,0.0,0.0,34,0.00,,---,0.00,VWS V13.01,2013-04-05 03:11:00,
2013-04-04 21:16:00,39.9,13.8,25.66,North,0,0.0,0.0,34,0.00,,---,0.00,VWS V13.01,2013-04-05 03:16:00,
2013-04-04 21:21:00,39.9,13.8,25.66,North,0,0.0,0.0,34,0.00,,---,0.00,VWS V13.01,2013-04-05 03:21:00,
2013-04-04 21:26:00,39.9,13.8,25.66,North,0,0.0,0.0,34,0.00,,---,0.00,VWS V13.01,2013-04-05 03:26:00,
2013-04-04 21:31:00,39.9,13.8,25.66,North,0,0.0,0.0,34,0.00,,---,0.00,VWS V13.01,2013-04-05 03:31:00,
2013-04-04 21:36:00,39.7,13.7,25.66,North,0,0.0,0.0,34,0.00,,---,0.00,VWS V13.01,2013-04-05 03:36:00,
2013-04-04 21:41:00,39.2,13.2,25.66,North,0,0.0,0.0,34,0.00,,---,0.00,VWS V13.01,2013-04-05 03:41:00,
2013-04-04 21:46:00,39.2,13.2,25.66,North,0,0.0,0.0,34,0.00,,---,0.00,VWS V13.01,2013-04-05 03:46:00,
2013-04-04 21:51:00,39.2,13.2,25.66,North,0,0.0,0.0,34,0.00,,---,0.00,VWS V13.01,2013-04-05 03:51:00,
2013-04-04 21:56:00,39.2,13.2,25.66,North,0,0.0,0.0,34,0.00,,---,0.00,VWS V13.01,2013-04-05 03:56:00,
2013-04-04 22:00:00,38.8,13.5,25.66,North,0,0.0,0.0,35,0.00,,---,0.00,VWS V13.01,2013-04-05 04:00:00,
2013-04-04 22:05:00,38.7,13.4,25.66,North,0,0.0,0.0,35,0.00,,---,0.00,VWS V13.01,2013-04-05 04:05:00,
2013-04-04 22:10:00,38.5,13.2,25.66,North,0,0.0,0.0,35,0.00,,---,0.00,VWS V13.01,2013-04-05 04:10:00,
2013-04-04 22:15:00,38.1,12.9,25.66,North,0,0.0,0.0,35,0.00,,---,0.00,VWS V13.01,2013-04-05 04:15:00,
2013-04-04 22:20:00,37.8,12.6,25.63,North,0,0.0,0.0,35,0.00,,---,0.00,VWS V13.01,2013-04-05 04:20:00,
2013-04-04 22:25:00,37.4,12.9,25.63,North,0,0.0,0.0,36,0.00,,---,0.00,VWS V13.01,2013-04-05 04:25:00,
2013-04-04 22:30:00,36.7,12.3,25.63,North,0,0.0,0.0,36,0.00,,---,0.00,VWS V13.01,2013-04-05 04:30:00,
2013-04-04 22:35:00,36.1,12.4,25.63,North,0,0.0,0.0,37,0.00,,---,0.00,VWS V13.01,2013-04-05 04:35:00,
2013-04-04 22:40:00,35.8,12.7,25.63,North,0,0.0,0.0,38,0.00,,---,0.00,VWS V13.01,2013-04-05 04:40:00,
2013-04-04 22:45:00,35.4,13.5,25.63,North,0,0.0,0.0,40,0.00,,---,0.00,VWS V13.01,2013-04-05 04:45:00,
2013-04-04 22:50:00,35.2,13.4,25.63,North,0,0.0,0.0,40,0.00,,---,0.00,VWS V13.01,2013-04-05 04:50:00,
2013-04-04 22:55:00,35.1,13.2,25.63,North,0,0.0,0.0,40,0.00,,---,0.00,VWS V13.01,2013-04-05 04:55:00,
2013-04-04 23:00:00,34.7,12.9,25.63,North,0,0.0,0.0,40,0.00,,---,0.00,VWS V13.01,2013-04-05 05:00:00,
2013-04-04 23:05:00,34.3,12.5,25.63,North,0,0.0,0.0,40,0.00,,---,0.00,VWS V13.01,2013-04-05 05:05:00,
2013-04-04 23:10:00,34.0,12.2,25.63,North,0,0.0,0.0,40,0.00,,---,0.00,VWS V13.01,2013-04-05 05:10:00,
2013-04-04 23:15:00,33.8,12.1,25.63,North,0,0.0,0.0,40,0.00,,---,0.00,VWS V13.01,2013-04-05 05:15:00,
2013-04-04 23:20:00,33.6,12.4,25.63,North,0,0.0,0.0,41,0.00,,---,0.00,VWS V13.01,2013-04-05 05:20:00,
2013-04-04 23:25:00,33.6,12.4,25.63,North,0,0.0,0.0,41,0.00,,---,0.00,VWS V13.01,2013-04-05 05:25:00,
2013-04-04 23:30:00,33.6,13.0,25.63,North,0,0.0,0.0,42,0.00,,---,0.00,VWS V13.01,2013-04-05 05:30:00,
2013-04-04 23:35:00,33.4,13.4,25.63,North,0,0.0,0.0,43,0.00,,---,0.00,VWS V13.01,2013-04-05 05:35:00,
2013-04-04 23:40:00,33.1,13.0,25.63,North,0,0.0,0.0,43,0.00,,---,0.00,VWS V13.01,2013-04-05 05:40:00,
2013-04-04 23:45:00,32.7,12.7,25.63,North,0,0.0,0.0,43,0.00,,---,0.00,VWS V13.01,2013-04-05 05:45:00,
2013-04-04 23:50:00,32.5,12.5,25.60,North,0,0.0,0.0,43,0.00,,---,0.00,VWS V13.01,2013-04-05 05:50:00,
2013-04-04 23:55:00,32.7,13.2,25.60,North,0,0.0,0.0,44,0.00,,---,0.00,VWS V13.01,2013-04-05 05:55:00,